Time;durP1;ratioP1;P1;durP2;ratioP2;P2;SDS_P1;SDS_P2;PMS_P1;PMS_P2;Temp;Humidity;BMP_temperature;BMP_pressure;BME280_temperature;BME280_humidity;BME280_pressure;Samples;Min_cycle;Max_cycle;Signal;HPM_P1;HPM_P2
2023/05/30 00:01:51;;;;;;;10.60;4.60;;;;;;;;;;10419991;28;20041;-73
2023/05/30 00:06:51;;;;;;;7.40;4.82;;;;;;;;;;10421603;28;20029;-73
2023/05/30 00:11:54;;;;;;;8.45;4.03;;;;;;;;;;10419947;28;20331;-73
2023/05/30 00:16:56;;;;;;;8.40;4.50;;;;;;;;;;10418413;28;20323;-73
2023/05/30 00:21:56;;;;;;;7.10;4.47;;;;;;;;;;10423704;28;20092;-73
2023/05/30 00:26:57;;;;;;;12.00;4.27;;;;;;;;;;10419408;28;20180;-73
2023/05/30 00:31:57;;;;;;;8.77;4.70;;;;;;;;;;10419921;28;20026;-74
2023/05/30 00:36:57;;;;;;;8.32;4.25;;;;;;;;;;10419144;28;20083;-74
2023/05/30 00:41:57;;;;;;;7.35;4.80;;;;;;;;;;10418289;28;20075;-74
2023/05/30 00:46:58;;;;;;;5.80;4.10;;;;;;;;;;10418690;28;20029;-74
2023/05/30 00:51:58;;;;;;;8.13;4.43;;;;;;;;;;10419935;28;20060;-73
2023/05/30 00:56:59;;;;;;;12.20;5.18;;;;;;;;;;10417965;28;20089;-73
2023/05/30 01:01:59;;;;;;;16.07;5.03;;;;;;;;;;10403852;28;20266;-74
2023/05/30 01:06:59;;;;;;;11.70;4.82;;;;;;;;;;10383296;28;20409;-73
2023/05/30 01:12:00;;;;;;;8.60;4.30;;;;;;;;;;10417578;28;20088;-72
2023/05/30 01:17:09;;;;;;;8.85;4.95;;;;;;;;;;10418881;28;20043;-73
2023/05/30 01:22:16;;;;;;;9.48;5.50;;;;;;;;;;10418844;28;20033;-73
2023/05/30 01:27:24;;;;;;;11.75;5.60;;;;;;;;;;10418652;28;20258;-73
2023/05/30 01:32:24;;;;;;;10.30;4.57;;;;;;;;;;10416925;28;20227;-74
2023/05/30 01:37:34;;;;;;;9.75;4.93;;;;;;;;;;10417915;28;20104;-73
2023/05/30 01:42:34;;;;;;;12.70;4.80;;;;;;;;;;10417981;28;20037;-74
2023/05/30 01:47:41;;;;;;;12.07;5.73;;;;;;;;;;10416906;28;20021;-74
2023/05/30 01:52:43;;;;;;;9.68;5.30;;;;;;;;;;10415526;28;20330;-74
2023/05/30 01:57:47;;;;;;;14.57;6.03;;;;;;;;;;10416373;28;20040;-73
2023/05/30 02:02:48;;;;;;;11.52;5.57;;;;;;;;;;10415367;28;20021;-74
2023/05/30 02:07:48;;;;;;;12.40;6.17;;;;;;;;;;10415826;28;20029;-74
2023/05/30 02:12:48;;;;;;;14.38;5.95;;;;;;;;;;10405086;28;20123;-74
2023/05/30 02:17:49;;;;;;;15.37;5.80;;;;;;;;;;10401116;28;20042;-74
2023/05/30 02:22:50;;;;;;;11.25;5.63;;;;;;;;;;10413615;28;20098;-74
2023/05/30 02:27:50;;;;;;;11.38;6.05;;;;;;;;;;10408275;28;20081;-73
2023/05/30 02:32:51;;;;;;;14.40;7.65;;;;;;;;;;10401836;28;20336;-73
2023/05/30 02:37:51;;;;;;;13.82;6.03;;;;;;;;;;10397518;28;20025;-73
2023/05/30 02:42:51;;;;;;;14.75;6.40;;;;;;;;;;10392375;28;20030;-73
2023/05/30 02:47:52;;;;;;;13.00;6.78;;;;;;;;;;10401048;28;20080;-74
2023/05/30 02:52:52;;;;;;;13.98;7.93;;;;;;;;;;10401167;28;20341;-74
2023/05/30 02:57:52;;;;;;;10.75;6.85;;;;;;;;;;10400651;28;20017;-74
2023/05/30 03:02:54;;;;;;;13.55;6.57;;;;;;;;;;10399875;28;20375;-75
2023/05/30 03:07:54;;;;;;;10.38;6.20;;;;;;;;;;10396083;28;20044;-74
2023/05/30 03:12:55;;;;;;;10.65;6.80;;;;;;;;;;10405622;28;20048;-74
2023/05/30 03:17:55;;;;;;;19.15;7.53;;;;;;;;;;10424146;28;20049;-74
2023/05/30 03:22:55;;;;;;;17.48;7.53;;;;;;;;;;10421101;28;20025;-74
2023/05/30 03:27:56;;;;;;;22.45;8.75;;;;;;;;;;10408245;28;20056;-75
2023/05/30 03:32:56;;;;;;;23.48;8.50;;;;;;;;;;10420930;28;20223;-76
2023/05/30 03:37:57;;;;;;;20.05;6.85;;;;;;;;;;10400154;28;20060;-75
2023/05/30 03:42:59;;;;;;;16.17;6.30;;;;;;;;;;10420252;28;20171;-75
2023/05/30 03:47:59;;;;;;;13.73;7.55;;;;;;;;;;10422115;28;20382;-74
2023/05/30 03:53:09;;;;;;;17.30;7.90;;;;;;;;;;10421393;28;20280;-73
2023/05/30 03:58:09;;;;;;;13.23;6.82;;;;;;;;;;10421177;28;20218;-73
2023/05/30 04:03:12;;;;;;;14.00;7.40;;;;;;;;;;10422314;28;20037;-73
2023/05/30 04:08:12;;;;;;;13.93;6.90;;;;;;;;;;10407527;28;20201;-73
2023/05/30 04:13:13;;;;;;;24.48;8.70;;;;;;;;;;10357939;28;20077;-73
2023/05/30 04:18:16;;;;;;;19.27;7.55;;;;;;;;;;10364074;28;20348;-73
2023/05/30 04:23:16;;;;;;;13.70;6.85;;;;;;;;;;10350621;28;20371;-73
2023/05/30 04:28:17;;;;;;;27.23;8.43;;;;;;;;;;10379990;28;20096;-73
2023/05/30 04:33:17;;;;;;;14.80;7.57;;;;;;;;;;10373539;28;20026;-72
2023/05/30 04:38:21;;;;;;;10.95;6.78;;;;;;;;;;10377529;28;20049;-74
2023/05/30 04:43:21;;;;;;;17.27;6.30;;;;;;;;;;10376261;28;20422;-73
2023/05/30 04:48:22;;;;;;;13.68;6.15;;;;;;;;;;10377536;28;20053;-72
2023/05/30 04:53:23;;;;;;;9.73;5.57;;;;;;;;;;10362351;28;20026;-72
2023/05/30 04:58:23;;;;;;;8.75;6.35;;;;;;;;;;10376882;28;20073;-74
2023/05/30 05:03:24;;;;;;;15.15;7.00;;;;;;;;;;10376885;28;20037;-74
2023/05/30 05:08:26;;;;;;;16.80;8.40;;;;;;;;;;10376945;28;20030;-73
2023/05/30 05:13:26;;;;;;;19.55;11.70;;;;;;;;;;10376650;28;20295;-74
2023/05/30 05:18:27;;;;;;;45.38;31.58;;;;;;;;;;10342416;28;20018;-74
2023/05/30 05:23:28;;;;;;;39.45;24.98;;;;;;;;;;10374283;28;20033;-74
2023/05/30 05:28:28;;;;;;;32.70;19.38;;;;;;;;;;10372078;28;20024;-73
2023/05/30 05:33:29;;;;;;;34.53;14.57;;;;;;;;;;10374214;28;20028;-74
2023/05/30 05:38:29;;;;;;;25.77;12.30;;;;;;;;;;10375607;28;20227;-73
2023/05/30 05:43:29;;;;;;;17.13;8.23;;;;;;;;;;10375950;28;20312;-73
2023/05/30 05:48:36;;;;;;;16.58;8.02;;;;;;;;;;10375671;28;20018;-72
2023/05/30 05:53:36;;;;;;;11.70;5.80;;;;;;;;;;10374456;28;20044;-73
2023/05/30 05:58:36;;;;;;;15.50;6.15;;;;;;;;;;10374481;28;20045;-75
2023/05/30 06:03:36;;;;;;;12.90;6.47;;;;;;;;;;10374941;28;20053;-76
2023/05/30 06:08:37;;;;;;;11.82;5.90;;;;;;;;;;10375088;28;20271;-74
2023/05/30 06:13:37;;;;;;;14.30;6.72;;;;;;;;;;10406496;28;20037;-73
2023/05/30 06:18:37;;;;;;;10.63;5.57;;;;;;;;;;10414437;28;20307;-74
2023/05/30 06:23:37;;;;;;;10.32;5.47;;;;;;;;;;10414709;28;20056;-73
2023/05/30 06:28:38;;;;;;;10.40;6.53;;;;;;;;;;10414092;28;20196;-73
2023/05/30 06:33:44;;;;;;;12.40;5.25;;;;;;;;;;10413621;28;20244;-73
2023/05/30 06:38:44;;;;;;;15.02;6.22;;;;;;;;;;10414306;28;20033;-73
2023/05/30 06:43:45;;;;;;;19.98;8.25;;;;;;;;;;10413835;28;20250;-74
2023/05/30 06:48:46;;;;;;;17.08;7.43;;;;;;;;;;10413579;28;20303;-74
2023/05/30 06:53:46;;;;;;;12.70;6.90;;;;;;;;;;10414266;28;20037;-73
2023/05/30 06:58:46;;;;;;;23.23;8.52;;;;;;;;;;10414311;28;20033;-74
2023/05/30 07:03:46;;;;;;;22.70;8.48;;;;;;;;;;10414508;28;20033;-72
2023/05/30 07:08:47;;;;;;;13.35;7.43;;;;;;;;;;10408292;28;20041;-73
2023/05/30 07:13:47;;;;;;;22.35;10.55;;;;;;;;;;10393143;28;20103;-72
2023/05/30 07:18:47;;;;;;;29.03;10.17;;;;;;;;;;10386513;28;20034;-73
2023/05/30 07:23:49;;;;;;;17.55;8.50;;;;;;;;;;10392815;28;20307;-71
2023/05/30 07:28:49;;;;;;;24.23;11.02;;;;;;;;;;10398325;28;20319;-74
2023/05/30 07:33:49;;;;;;;26.50;11.20;;;;;;;;;;10389322;28;20149;-74
2023/05/30 07:38:50;;;;;;;32.20;11.03;;;;;;;;;;10393919;28;20231;-75
2023/05/30 07:43:50;;;;;;;27.80;10.07;;;;;;;;;;10388167;28;20037;-74
2023/05/30 07:48:50;;;;;;;26.42;9.85;;;;;;;;;;10390872;28;20033;-70
2023/05/30 07:53:50;;;;;;;22.98;8.15;;;;;;;;;;10394177;28;20362;-74
2023/05/30 07:58:51;;;;;;;24.80;8.07;;;;;;;;;;10388122;28;20037;-74
2023/05/30 08:03:51;;;;;;;25.80;10.93;;;;;;;;;;10395250;28;20067;-73
2023/05/30 08:08:51;;;;;;;20.63;10.00;;;;;;;;;;10396275;28;20041;-73
2023/05/30 08:13:52;;;;;;;28.33;7.37;;;;;;;;;;10419233;28;20069;-74
2023/05/30 08:18:56;;;;;;;9.23;5.40;;;;;;;;;;10420529;28;20052;-73
2023/05/30 08:23:56;;;;;;;11.57;5.15;;;;;;;;;;10418063;28;20429;-74
2023/05/30 08:28:56;;;;;;;10.67;5.67;;;;;;;;;;10419116;28;20332;-74
2023/05/30 08:33:57;;;;;;;10.02;6.15;;;;;;;;;;10418775;28;20038;-73
2023/05/30 08:38:57;;;;;;;10.17;4.50;;;;;;;;;;10417912;28;20549;-74
2023/05/30 08:43:57;;;;;;;9.25;4.90;;;;;;;;;;10419282;28;20061;-74
2023/05/30 08:48:58;;;;;;;14.70;6.15;;;;;;;;;;10418170;28;20030;-74
2023/05/30 08:54:01;;;;;;;17.87;6.07;;;;;;;;;;10418093;28;20037;-74
2023/05/30 08:59:02;;;;;;;21.42;6.45;;;;;;;;;;10417989;28;20339;-74
2023/05/30 09:04:06;;;;;;;12.68;7.05;;;;;;;;;;10417280;28;20029;-74
2023/05/30 09:09:09;;;;;;;11.88;6.93;;;;;;;;;;10417232;28;20386;-74
2023/05/30 09:14:09;;;;;;;11.18;6.25;;;;;;;;;;10415627;28;20192;-73
2023/05/30 09:19:09;;;;;;;13.80;5.83;;;;;;;;;;10417544;28;20311;-73
2023/05/30 09:24:10;;;;;;;17.23;6.70;;;;;;;;;;10416958;28;20029;-74
2023/05/30 09:29:10;;;;;;;12.05;5.43;;;;;;;;;;10416260;28;20243;-74
2023/05/30 09:34:19;;;;;;;13.85;4.78;;;;;;;;;;10416440;28;20311;-73
2023/05/30 09:39:20;;;;;;;8.07;4.38;;;;;;;;;;10416178;28;20365;-74
2023/05/30 09:44:20;;;;;;;8.13;4.30;;;;;;;;;;10416468;28;20115;-73
2023/05/30 09:49:20;;;;;;;15.95;4.70;;;;;;;;;;10416439;28;20128;-72
2023/05/30 09:54:24;;;;;;;10.82;4.60;;;;;;;;;;10415653;28;20411;-73
2023/05/30 09:59:25;;;;;;;17.02;5.15;;;;;;;;;;10416008;28;20053;-73
2023/05/30 10:04:25;;;;;;;12.60;4.10;;;;;;;;;;10415253;28;20323;-73
2023/05/30 10:09:25;;;;;;;12.00;4.43;;;;;;;;;;10414940;28;20044;-73
2023/05/30 10:14:25;;;;;;;11.63;5.10;;;;;;;;;;10414014;28;20254;-73
2023/05/30 10:19:30;;;;;;;12.30;5.25;;;;;;;;;;10414567;28;20037;-73
2023/05/30 10:24:30;;;;;;;6.43;3.40;;;;;;;;;;10415113;28;20079;-72
2023/05/30 10:29:38;;;;;;;6.85;4.00;;;;;;;;;;10414603;28;20204;-73
2023/05/30 10:34:42;;;;;;;17.25;7.03;;;;;;;;;;10414136;28;20053;-74
2023/05/30 10:39:56;;;;;;;11.90;3.78;;;;;;;;;;10414360;28;20410;-74
2023/05/30 10:45:09;;;;;;;6.55;3.70;;;;;;;;;;10415361;28;20298;-74
2023/05/30 10:50:13;;;;;;;4.28;2.60;;;;;;;;;;10414580;28;20367;-73
2023/05/30 10:55:14;;;;;;;5.82;2.97;;;;;;;;;;10400416;28;20038;-72
2023/05/30 11:00:44;;;;;;;10.80;3.40;;;;;;;;;;10396846;28;20238;-72
2023/05/30 11:05:48;;;;;;;6.85;2.78;;;;;;;;;;10403310;28;20338;-72
2023/05/30 11:10:55;;;;;;;5.30;3.00;;;;;;;;;;10372374;28;20227;-73
2023/05/30 11:15:55;;;;;;;6.05;2.85;;;;;;;;;;10381129;28;20050;-73
2023/05/30 11:20:55;;;;;;;6.78;3.00;;;;;;;;;;10372647;28;20026;-73
2023/05/30 11:25:57;;;;;;;5.03;2.75;;;;;;;;;;10377899;28;20030;-73
2023/05/30 11:30:58;;;;;;;8.25;3.20;;;;;;;;;;10380480;28;20030;-73
2023/05/30 11:35:59;;;;;;;2.00;1.70;;;;;;;;;;10379862;28;20128;-72
2023/05/30 11:40:59;;;;;;;3.90;2.22;;;;;;;;;;10380048;28;20084;-73
2023/05/30 11:45:59;;;;;;;6.03;2.83;;;;;;;;;;10380315;28;20216;-72
2023/05/30 11:51:00;;;;;;;7.23;2.53;;;;;;;;;;10379868;28;20368;-73
2023/05/30 11:56:00;;;;;;;3.30;2.15;;;;;;;;;;10409998;28;20094;-73
2023/05/30 12:01:01;;;;;;;1.73;1.40;;;;;;;;;;10420199;28;20025;-73
2023/05/30 12:06:09;;;;;;;2.85;1.60;;;;;;;;;;10420129;28;20025;-73
2023/05/30 12:11:10;;;;;;;3.78;1.20;;;;;;;;;;10419665;28;20116;-73
2023/05/30 12:16:11;;;;;;;4.35;1.50;;;;;;;;;;10392762;28;20312;-72
2023/05/30 12:21:14;;;;;;;2.85;1.35;;;;;;;;;;10378614;28;20315;-72
2023/05/30 12:26:15;;;;;;;2.72;1.27;;;;;;;;;;10378466;28;20037;-72
2023/05/30 12:31:24;;;;;;;2.55;1.40;;;;;;;;;;10378714;28;20339;-72
2023/05/30 12:36:24;;;;;;;1.48;1.30;;;;;;;;;;10378607;28;20327;-73
2023/05/30 12:41:31;;;;;;;2.37;1.40;;;;;;;;;;10408977;28;20033;-73
2023/05/30 12:46:33;;;;;;;2.50;1.50;;;;;;;;;;10418896;28;20029;-72
2023/05/30 12:51:35;;;;;;;4.28;1.42;;;;;;;;;;10398137;28;20044;-74
2023/05/30 12:56:35;;;;;;;1.65;1.20;;;;;;;;;;10407405;28;20316;-72
2023/05/30 13:01:35;;;;;;;2.10;1.30;;;;;;;;;;10391611;28;20026;-71
2023/05/30 13:06:36;;;;;;;3.40;1.88;;;;;;;;;;10386797;28;20032;-72
2023/05/30 13:11:36;;;;;;;3.63;2.30;;;;;;;;;;10385189;28;20050;-72
2023/05/30 13:16:36;;;;;;;1.67;0.77;;;;;;;;;;10385486;28;20225;-72
2023/05/30 13:21:38;;;;;;;3.95;1.10;;;;;;;;;;10390376;28;20029;-72
2023/05/30 13:26:38;;;;;;;2.55;1.23;;;;;;;;;;10387701;28;20022;-73
2023/05/30 13:31:38;;;;;;;1.90;0.98;;;;;;;;;;10397508;28;20026;-73
2023/05/30 13:36:38;;;;;;;4.00;1.30;;;;;;;;;;10391897;28;20030;-73
2023/05/30 13:41:39;;;;;;;5.00;1.30;;;;;;;;;;10396134;28;20037;-72
2023/05/30 13:46:39;;;;;;;1.27;0.93;;;;;;;;;;10392428;28;20033;-72
2023/05/30 13:51:39;;;;;;;2.30;1.67;;;;;;;;;;10393607;28;20036;-70
2023/05/30 13:56:40;;;;;;;6.20;1.80;;;;;;;;;;10389632;28;20280;-71
2023/05/30 14:01:40;;;;;;;5.20;2.20;;;;;;;;;;10381152;28;20227;-73
2023/05/30 14:06:40;;;;;;;4.03;1.83;;;;;;;;;;10386748;28;20496;-73
2023/05/30 14:11:41;;;;;;;3.60;2.00;;;;;;;;;;10388138;28;20115;-72
2023/05/30 14:16:41;;;;;;;6.97;2.00;;;;;;;;;;10391675;28;20053;-72
2023/05/30 14:21:42;;;;;;;3.58;1.83;;;;;;;;;;10384317;28;20036;-72
2023/05/30 14:26:42;;;;;;;2.60;1.90;;;;;;;;;;10391900;28;20034;-73
2023/05/30 14:31:42;;;;;;;4.22;1.80;;;;;;;;;;10389771;28;20088;-73
2023/05/30 14:36:46;;;;;;;2.78;1.85;;;;;;;;;;10397123;28;20029;-72
2023/05/30 14:41:46;;;;;;;4.35;1.60;;;;;;;;;;10392928;28;20278;-72
2023/05/30 14:46:46;;;;;;;2.58;2.00;;;;;;;;;;10377969;28;20108;-72
2023/05/30 14:51:47;;;;;;;1.52;1.30;;;;;;;;;;10405197;28;20214;-73
2023/05/30 14:56:47;;;;;;;3.75;2.10;;;;;;;;;;10413707;28;20025;-73
2023/05/30 15:01:48;;;;;;;2.97;1.85;;;;;;;;;;10420985;28;20037;-73
2023/05/30 15:06:48;;;;;;;2.42;1.70;;;;;;;;;;10421957;28;20029;-72
2023/05/30 15:11:48;;;;;;;2.67;1.63;;;;;;;;;;10421517;28;20441;-74
2023/05/30 15:16:49;;;;;;;1.60;1.27;;;;;;;;;;10422056;28;20390;-74
2023/05/30 15:21:49;;;;;;;4.50;1.43;;;;;;;;;;10422081;28;20029;-73
2023/05/30 15:26:49;;;;;;;2.00;1.50;;;;;;;;;;10421517;28;20051;-74
2023/05/30 15:31:50;;;;;;;4.97;1.97;;;;;;;;;;10421036;28;20021;-73
2023/05/30 15:36:50;;;;;;;6.18;1.95;;;;;;;;;;10421228;28;20037;-73
2023/05/30 15:41:51;;;;;;;3.38;1.65;;;;;;;;;;10420626;28;20025;-73
2023/05/30 15:46:58;;;;;;;4.20;1.67;;;;;;;;;;10421146;28;20040;-73
2023/05/30 15:51:58;;;;;;;4.83;1.77;;;;;;;;;;10422067;28;20334;-74
2023/05/30 15:57:05;;;;;;;5.47;2.10;;;;;;;;;;10420134;28;20111;-73
2023/05/30 16:02:06;;;;;;;5.72;2.10;;;;;;;;;;10420260;28;20029;-74
2023/05/30 16:07:06;;;;;;;6.78;2.00;;;;;;;;;;10420372;28;20045;-73
2023/05/30 16:12:07;;;;;;;8.97;2.27;;;;;;;;;;10419682;28;20045;-73
2023/05/30 16:17:07;;;;;;;6.63;2.33;;;;;;;;;;10419845;28;20045;-73
2023/05/30 16:22:08;;;;;;;4.87;3.17;;;;;;;;;;10419841;28;20072;-73
2023/05/30 16:27:08;;;;;;;5.13;2.78;;;;;;;;;;10419504;28;20091;-73
2023/05/30 16:32:09;;;;;;;7.50;3.20;;;;;;;;;;10418611;28;20045;-74
2023/05/30 16:37:09;;;;;;;8.93;3.63;;;;;;;;;;10419241;28;20041;-73
2023/05/30 16:42:10;;;;;;;4.07;2.60;;;;;;;;;;10418550;28;20109;-73
2023/05/30 16:47:10;;;;;;;3.95;2.88;;;;;;;;;;10419313;28;20116;-73
2023/05/30 16:52:10;;;;;;;8.82;3.50;;;;;;;;;;10417582;28;20218;-73
2023/05/30 16:57:10;;;;;;;6.13;3.13;;;;;;;;;;10404553;28;20323;-73
2023/05/30 17:02:11;;;;;;;8.85;3.35;;;;;;;;;;10418646;28;20013;-72
2023/05/30 17:07:12;;;;;;;5.80;3.00;;;;;;;;;;10417573;28;20025;-73
2023/05/30 17:12:12;;;;;;;8.35;3.63;;;;;;;;;;10413657;28;20041;-72
2023/05/30 17:17:12;;;;;;;7.90;4.10;;;;;;;;;;10376100;28;20034;-73
2023/05/30 17:22:12;;;;;;;9.60;3.10;;;;;;;;;;10406337;28;20335;-72
2023/05/30 17:27:13;;;;;;;5.47;3.50;;;;;;;;;;10391771;28;20073;-73
2023/05/30 17:32:13;;;;;;;6.57;3.80;;;;;;;;;;10409599;28;20048;-73
2023/05/30 17:37:14;;;;;;;13.90;6.43;;;;;;;;;;10416425;28;20259;-73
2023/05/30 17:42:14;;;;;;;11.70;4.53;;;;;;;;;;10395875;28;20034;-72
2023/05/30 17:47:15;;;;;;;10.45;3.78;;;;;;;;;;10405190;28;20088;-76
2023/05/30 17:52:15;;;;;;;5.00;2.90;;;;;;;;;;10388214;28;20056;-73
2023/05/30 17:57:16;;;;;;;5.70;3.22;;;;;;;;;;10388070;28;20234;-73
2023/05/30 18:02:16;;;;;;;4.60;3.07;;;;;;;;;;10377701;28;20024;-72
2023/05/30 18:07:17;;;;;;;7.82;3.15;;;;;;;;;;10381777;28;20041;-72
2023/05/30 18:12:17;;;;;;;3.42;2.70;;;;;;;;;;10367415;28;20227;-72
2023/05/30 18:17:18;;;;;;;4.07;2.92;;;;;;;;;;10376155;28;20056;-71
2023/05/30 18:22:18;;;;;;;7.63;3.67;;;;;;;;;;10376803;28;20018;-71
2023/05/30 18:27:18;;;;;;;6.30;3.67;;;;;;;;;;10378433;28;20590;-70
2023/05/30 18:32:19;;;;;;;21.35;3.92;;;;;;;;;;10374982;28;20027;-72
2023/05/30 18:37:20;;;;;;;5.80;3.42;;;;;;;;;;10385758;28;20483;-76
2023/05/30 18:42:20;;;;;;;7.60;3.40;;;;;;;;;;10370471;28;20273;-72
2023/05/30 18:47:21;;;;;;;5.15;3.38;;;;;;;;;;10378829;28;20034;-73
2023/05/30 18:52:21;;;;;;;5.15;2.90;;;;;;;;;;10381493;28;20030;-72
2023/05/30 18:57:21;;;;;;;8.53;3.83;;;;;;;;;;10387088;28;20081;-72
2023/05/30 19:02:22;;;;;;;8.93;3.30;;;;;;;;;;10384663;28;20029;-71
2023/05/30 19:07:22;;;;;;;6.13;2.97;;;;;;;;;;10385678;28;20248;-72
2023/05/30 19:12:22;;;;;;;11.43;3.38;;;;;;;;;;10363793;28;20338;-72
2023/05/30 19:17:22;;;;;;;6.85;3.10;;;;;;;;;;10344248;28;20344;-70
2023/05/30 19:22:23;;;;;;;6.60;3.40;;;;;;;;;;10346309;28;20105;-72
2023/05/30 19:27:23;;;;;;;4.95;3.00;;;;;;;;;;10345706;28;20025;-72
2023/05/30 19:32:23;;;;;;;5.10;3.28;;;;;;;;;;10323341;28;20097;-71
2023/05/30 19:37:24;;;;;;;9.23;3.42;;;;;;;;;;10340414;28;20014;-72
2023/05/30 19:42:25;;;;;;;8.95;4.25;;;;;;;;;;10349064;28;20028;-71
2023/05/30 19:47:25;;;;;;;8.70;3.87;;;;;;;;;;10338740;28;20034;-72
2023/05/30 19:52:25;;;;;;;8.35;3.63;;;;;;;;;;10341829;28;20323;-74
2023/05/30 19:57:26;;;;;;;6.17;3.30;;;;;;;;;;10349979;28;20031;-72
2023/05/30 20:02:30;;;;;;;9.43;4.20;;;;;;;;;;10345405;28;20125;-73
2023/05/30 20:07:31;;;;;;;6.38;3.70;;;;;;;;;;10363857;28;20026;-86
2023/05/30 20:12:31;;;;;;;12.40;3.87;;;;;;;;;;10368126;28;20073;-80
2023/05/30 20:17:32;;;;;;;6.03;3.08;;;;;;;;;;10389684;28;20071;-72
2023/05/30 20:22:33;;;;;;;8.30;3.47;;;;;;;;;;10385042;28;20036;-74
2023/05/30 20:27:37;;;;;;;12.43;3.75;;;;;;;;;;10406109;28;20216;-75
2023/05/30 20:32:37;;;;;;;7.72;3.53;;;;;;;;;;10387430;28;20093;-77
2023/05/30 20:37:37;;;;;;;6.43;4.10;;;;;;;;;;10397306;28;20354;-77
2023/05/30 20:42:37;;;;;;;5.65;3.45;;;;;;;;;;10389501;28;20053;-72
2023/05/30 20:47:38;;;;;;;7.07;3.92;;;;;;;;;;10388009;28;20033;-72
2023/05/30 20:52:38;;;;;;;10.50;4.10;;;;;;;;;;10393892;28;20278;-70
2023/05/30 20:57:38;;;;;;;8.70;4.53;;;;;;;;;;10399296;28;20417;-70
2023/05/30 21:02:39;;;;;;;10.85;4.28;;;;;;;;;;10393274;28;20027;-70
2023/05/30 21:07:40;;;;;;;7.50;4.25;;;;;;;;;;10394452;28;20017;-70
2023/05/30 21:12:40;;;;;;;7.00;4.07;;;;;;;;;;10406413;28;20239;-69
2023/05/30 21:17:40;;;;;;;7.22;4.05;;;;;;;;;;10390358;28;20033;-72
2023/05/30 21:22:40;;;;;;;8.88;5.10;;;;;;;;;;10396638;28;20338;-71
2023/05/30 21:27:41;;;;;;;14.27;4.32;;;;;;;;;;10399266;28;20029;-71
2023/05/30 21:32:41;;;;;;;10.45;4.47;;;;;;;;;;10392671;28;20040;-71
2023/05/30 21:37:41;;;;;;;5.40;3.87;;;;;;;;;;10387081;28;20033;-70
2023/05/30 21:42:41;;;;;;;7.38;4.55;;;;;;;;;;10398606;28;20017;-71
2023/05/30 21:47:42;;;;;;;7.50;4.50;;;;;;;;;;10383954;28;20029;-71
2023/05/30 21:52:42;;;;;;;7.57;4.38;;;;;;;;;;10379680;28;20279;-71
2023/05/30 21:57:42;;;;;;;10.68;4.60;;;;;;;;;;10385903;28;20041;-71
2023/05/30 22:02:42;;;;;;;6.28;4.15;;;;;;;;;;10385799;28;20068;-71
2023/05/30 22:07:43;;;;;;;9.10;4.70;;;;;;;;;;10393009;28;20025;-71
2023/05/30 22:12:43;;;;;;;11.07;5.65;;;;;;;;;;10388613;28;20550;-71
2023/05/30 22:17:43;;;;;;;9.35;4.47;;;;;;;;;;10379764;28;20092;-71
2023/05/30 22:22:43;;;;;;;12.63;5.97;;;;;;;;;;10387202;28;20045;-72
2023/05/30 22:27:44;;;;;;;7.07;4.47;;;;;;;;;;10380187;28;20084;-71
2023/05/30 22:32:44;;;;;;;6.15;4.72;;;;;;;;;;10381499;28;20316;-71
2023/05/30 22:37:44;;;;;;;7.43;5.00;;;;;;;;;;10388027;28;20022;-70
2023/05/30 22:42:44;;;;;;;7.93;4.85;;;;;;;;;;10384424;28;20014;-71
2023/05/30 22:47:45;;;;;;;8.25;4.43;;;;;;;;;;10384888;28;20246;-71
2023/05/30 22:52:45;;;;;;;6.55;4.72;;;;;;;;;;10383045;28;20026;-71
2023/05/30 22:57:45;;;;;;;6.72;4.55;;;;;;;;;;10382066;28;20021;-71
2023/05/30 23:02:46;;;;;;;10.73;4.70;;;;;;;;;;10388457;28;20030;-71
2023/05/30 23:07:46;;;;;;;12.50;7.03;;;;;;;;;;10383188;28;20049;-71
2023/05/30 23:12:47;;;;;;;7.63;5.53;;;;;;;;;;10383826;28;20258;-71
2023/05/30 23:17:47;;;;;;;8.73;5.73;;;;;;;;;;10392653;28;20525;-71
2023/05/30 23:22:47;;;;;;;9.55;5.40;;;;;;;;;;10386225;28;20199;-71
2023/05/30 23:27:47;;;;;;;7.88;5.20;;;;;;;;;;10387957;28;20029;-71
2023/05/30 23:32:48;;;;;;;8.50;5.47;;;;;;;;;;10388910;28;20033;-71
2023/05/30 23:37:48;;;;;;;9.37;5.47;;;;;;;;;;10384865;28;20300;-71
2023/05/30 23:42:48;;;;;;;12.43;5.80;;;;;;;;;;10396059;28;20271;-71
2023/05/30 23:47:52;;;;;;;8.40;5.57;;;;;;;;;;10388613;28;20044;-72
2023/05/30 23:52:52;;;;;;;9.15;5.95;;;;;;;;;;10394904;28;20041;-71
2023/05/30 23:57:52;;;;;;;11.50;5.80;;;;;;;;;;10394261;28;20101;-71
